sensor_id;sensor_type;location;lat;lon;timestamp;P1;durP1;ratioP1;P2;durP2;ratioP2
17965;SDS011;9108;53.204;10.424;2022-10-16T00:01:08;11.07;;;6.07;;
17965;SDS011;9108;53.204;10.424;2022-10-16T00:03:36;10.52;;;6.30;;
17965;SDS011;9108;53.204;10.424;2022-10-16T00:06:03;11.77;;;6.20;;
17965;SDS011;9108;53.204;10.424;2022-10-16T00:08:32;10.23;;;5.68;;
17965;SDS011;9108;53.204;10.424;2022-10-16T00:11:00;10.52;;;6.30;;
17965;SDS011;9108;53.204;10.424;2022-10-16T00:13:27;10.18;;;5.93;;
17965;SDS011;9108;53.204;10.424;2022-10-16T00:15:55;9.82;;;5.88;;
17965;SDS011;9108;53.204;10.424;2022-10-16T00:18:22;11.15;;;6.10;;
17965;SDS011;9108;53.204;10.424;2022-10-16T00:20:49;9.02;;;5.97;;
17965;SDS011;9108;53.204;10.424;2022-10-16T00:23:16;10.75;;;6.22;;
17965;SDS011;9108;53.204;10.424;2022-10-16T00:25:45;11.97;;;5.70;;
17965;SDS011;9108;53.204;10.424;2022-10-16T00:28:12;11.40;;;6.05;;
17965;SDS011;9108;53.204;10.424;2022-10-16T00:30:39;10.25;;;5.70;;
17965;SDS011;9108;53.204;10.424;2022-10-16T00:33:06;12.05;;;5.63;;
17965;SDS011;9108;53.204;10.424;2022-10-16T00:35:34;8.55;;;4.80;;
17965;SDS011;9108;53.204;10.424;2022-10-16T00:38:01;9.63;;;4.45;;
17965;SDS011;9108;53.204;10.424;2022-10-16T00:40:28;8.82;;;4.68;;
17965;SDS011;9108;53.204;10.424;2022-10-16T00:42:58;10.75;;;4.63;;
17965;SDS011;9108;53.204;10.424;2022-10-16T00:45:25;10.63;;;4.38;;
17965;SDS011;9108;53.204;10.424;2022-10-16T00:47:52;7.40;;;4.15;;
17965;SDS011;9108;53.204;10.424;2022-10-16T00:50:22;6.82;;;3.83;;
17965;SDS011;9108;53.204;10.424;2022-10-16T00:52:52;7.57;;;3.78;;
17965;SDS011;9108;53.204;10.424;2022-10-16T00:55:19;7.38;;;3.70;;
17965;SDS011;9108;53.204;10.424;2022-10-16T00:57:47;6.13;;;3.42;;
17965;SDS011;9108;53.204;10.424;2022-10-16T01:00:17;8.85;;;3.75;;
17965;SDS011;9108;53.204;10.424;2022-10-16T01:02:51;6.82;;;3.30;;
17965;SDS011;9108;53.204;10.424;2022-10-16T01:05:18;6.25;;;3.00;;
17965;SDS011;9108;53.204;10.424;2022-10-16T01:07:46;6.57;;;2.85;;
17965;SDS011;9108;53.204;10.424;2022-10-16T01:10:21;8.15;;;2.67;;
17965;SDS011;9108;53.204;10.424;2022-10-16T01:12:53;5.55;;;2.58;;
17965;SDS011;9108;53.204;10.424;2022-10-16T01:15:25;6.53;;;2.80;;
17965;SDS011;9108;53.204;10.424;2022-10-16T01:17:55;5.17;;;2.57;;
17965;SDS011;9108;53.204;10.424;2022-10-16T01:20:25;4.63;;;2.40;;
17965;SDS011;9108;53.204;10.424;2022-10-16T01:22:57;4.72;;;2.40;;
17965;SDS011;9108;53.204;10.424;2022-10-16T01:25:29;4.45;;;2.15;;
17965;SDS011;9108;53.204;10.424;2022-10-16T01:27:59;5.88;;;2.30;;
17965;SDS011;9108;53.204;10.424;2022-10-16T01:30:27;4.97;;;2.08;;
17965;SDS011;9108;53.204;10.424;2022-10-16T01:32:57;4.72;;;2.13;;
17965;SDS011;9108;53.204;10.424;2022-10-16T01:35:26;7.60;;;2.10;;
17965;SDS011;9108;53.204;10.424;2022-10-16T01:37:55;3.85;;;2.10;;
17965;SDS011;9108;53.204;10.424;2022-10-16T01:40:24;6.63;;;2.27;;
17965;SDS011;9108;53.204;10.424;2022-10-16T01:42:53;6.40;;;2.23;;
17965;SDS011;9108;53.204;10.424;2022-10-16T01:45:24;5.53;;;1.95;;
17965;SDS011;9108;53.204;10.424;2022-10-16T01:47:51;6.43;;;2.20;;
17965;SDS011;9108;53.204;10.424;2022-10-16T01:50:19;5.20;;;2.10;;
17965;SDS011;9108;53.204;10.424;2022-10-16T01:52:48;5.22;;;2.17;;
17965;SDS011;9108;53.204;10.424;2022-10-16T01:55:17;10.50;;;2.60;;
17965;SDS011;9108;53.204;10.424;2022-10-16T01:57:46;4.73;;;1.97;;
17965;SDS011;9108;53.204;10.424;2022-10-16T02:00:14;6.55;;;2.00;;
17965;SDS011;9108;53.204;10.424;2022-10-16T02:02:44;3.90;;;1.90;;
17965;SDS011;9108;53.204;10.424;2022-10-16T02:05:15;4.72;;;1.90;;
17965;SDS011;9108;53.204;10.424;2022-10-16T02:07:43;3.80;;;1.75;;
17965;SDS011;9108;53.204;10.424;2022-10-16T02:10:10;5.47;;;1.90;;
17965;SDS011;9108;53.204;10.424;2022-10-16T02:12:38;5.05;;;1.90;;
17965;SDS011;9108;53.204;10.424;2022-10-16T02:15:08;3.63;;;2.05;;
17965;SDS011;9108;53.204;10.424;2022-10-16T02:17:35;6.63;;;1.90;;
17965;SDS011;9108;53.204;10.424;2022-10-16T02:20:04;5.32;;;1.80;;
17965;SDS011;9108;53.204;10.424;2022-10-16T02:22:33;5.28;;;1.80;;
17965;SDS011;9108;53.204;10.424;2022-10-16T02:25:02;4.10;;;1.80;;
17965;SDS011;9108;53.204;10.424;2022-10-16T02:27:33;5.93;;;1.83;;
17965;SDS011;9108;53.204;10.424;2022-10-16T02:30:03;2.92;;;1.70;;
17965;SDS011;9108;53.204;10.424;2022-10-16T02:32:32;5.57;;;1.55;;
17965;SDS011;9108;53.204;10.424;2022-10-16T02:35:00;5.90;;;1.55;;
17965;SDS011;9108;53.204;10.424;2022-10-16T02:37:29;3.73;;;1.43;;
17965;SDS011;9108;53.204;10.424;2022-10-16T02:39:57;6.85;;;1.45;;
17965;SDS011;9108;53.204;10.424;2022-10-16T02:42:27;4.35;;;1.60;;
17965;SDS011;9108;53.204;10.424;2022-10-16T02:44:54;6.07;;;1.45;;
17965;SDS011;9108;53.204;10.424;2022-10-16T02:47:21;5.60;;;1.40;;
17965;SDS011;9108;53.204;10.424;2022-10-16T02:49:49;5.88;;;1.60;;
17965;SDS011;9108;53.204;10.424;2022-10-16T02:52:16;4.63;;;1.40;;
17965;SDS011;9108;53.204;10.424;2022-10-16T02:54:44;4.32;;;1.67;;
17965;SDS011;9108;53.204;10.424;2022-10-16T02:57:11;6.18;;;1.40;;
17965;SDS011;9108;53.204;10.424;2022-10-16T02:59:38;6.53;;;1.52;;
17965;SDS011;9108;53.204;10.424;2022-10-16T03:02:05;4.18;;;1.50;;
17965;SDS011;9108;53.204;10.424;2022-10-16T03:04:32;5.13;;;1.57;;
17965;SDS011;9108;53.204;10.424;2022-10-16T03:06:59;4.00;;;1.60;;
17965;SDS011;9108;53.204;10.424;2022-10-16T03:09:27;5.90;;;1.38;;
17965;SDS011;9108;53.204;10.424;2022-10-16T03:11:55;4.60;;;1.27;;
17965;SDS011;9108;53.204;10.424;2022-10-16T03:14:22;4.78;;;1.50;;
17965;SDS011;9108;53.204;10.424;2022-10-16T03:16:49;7.72;;;1.60;;
17965;SDS011;9108;53.204;10.424;2022-10-16T03:19:19;5.18;;;1.50;;
17965;SDS011;9108;53.204;10.424;2022-10-16T03:21:47;4.55;;;1.50;;
17965;SDS011;9108;53.204;10.424;2022-10-16T03:24:14;5.38;;;1.40;;
17965;SDS011;9108;53.204;10.424;2022-10-16T03:26:41;4.72;;;1.40;;
17965;SDS011;9108;53.204;10.424;2022-10-16T03:29:09;5.30;;;1.50;;
17965;SDS011;9108;53.204;10.424;2022-10-16T03:31:36;7.55;;;1.45;;
17965;SDS011;9108;53.204;10.424;2022-10-16T03:34:03;3.50;;;1.50;;
17965;SDS011;9108;53.204;10.424;2022-10-16T03:36:30;5.07;;;1.90;;
17965;SDS011;9108;53.204;10.424;2022-10-16T03:38:57;7.70;;;1.67;;
17965;SDS011;9108;53.204;10.424;2022-10-16T03:41:24;4.13;;;1.40;;
17965;SDS011;9108;53.204;10.424;2022-10-16T03:43:51;5.25;;;1.42;;
17965;SDS011;9108;53.204;10.424;2022-10-16T03:46:20;4.70;;;1.50;;
17965;SDS011;9108;53.204;10.424;2022-10-16T03:48:48;6.70;;;1.67;;
17965;SDS011;9108;53.204;10.424;2022-10-16T03:51:15;7.10;;;1.80;;
17965;SDS011;9108;53.204;10.424;2022-10-16T03:53:42;4.80;;;1.50;;
17965;SDS011;9108;53.204;10.424;2022-10-16T03:56:09;3.90;;;1.48;;
17965;SDS011;9108;53.204;10.424;2022-10-16T03:58:37;5.60;;;1.55;;
17965;SDS011;9108;53.204;10.424;2022-10-16T04:01:04;5.22;;;1.70;;
17965;SDS011;9108;53.204;10.424;2022-10-16T04:03:33;6.20;;;1.70;;
17965;SDS011;9108;53.204;10.424;2022-10-16T04:06:00;5.65;;;1.70;;
17965;SDS011;9108;53.204;10.424;2022-10-16T04:08:27;5.60;;;1.52;;
17965;SDS011;9108;53.204;10.424;2022-10-16T04:10:54;2.45;;;1.30;;
17965;SDS011;9108;53.204;10.424;2022-10-16T04:13:21;6.28;;;1.60;;
17965;SDS011;9108;53.204;10.424;2022-10-16T04:15:51;4.77;;;1.77;;
17965;SDS011;9108;53.204;10.424;2022-10-16T04:18:18;5.93;;;1.65;;
17965;SDS011;9108;53.204;10.424;2022-10-16T04:20:47;5.50;;;1.58;;
17965;SDS011;9108;53.204;10.424;2022-10-16T04:23:14;5.03;;;1.70;;
17965;SDS011;9108;53.204;10.424;2022-10-16T04:25:41;5.35;;;1.65;;
17965;SDS011;9108;53.204;10.424;2022-10-16T04:28:08;6.57;;;2.10;;
17965;SDS011;9108;53.204;10.424;2022-10-16T04:30:37;4.15;;;1.65;;
17965;SDS011;9108;53.204;10.424;2022-10-16T04:33:04;4.68;;;1.65;;
17965;SDS011;9108;53.204;10.424;2022-10-16T04:35:31;3.80;;;1.50;;
17965;SDS011;9108;53.204;10.424;2022-10-16T04:37:59;4.63;;;1.60;;
17965;SDS011;9108;53.204;10.424;2022-10-16T04:40:26;4.10;;;1.50;;
17965;SDS011;9108;53.204;10.424;2022-10-16T04:42:53;5.35;;;1.80;;
17965;SDS011;9108;53.204;10.424;2022-10-16T04:45:20;7.38;;;1.90;;
17965;SDS011;9108;53.204;10.424;2022-10-16T04:47:48;7.90;;;2.00;;
17965;SDS011;9108;53.204;10.424;2022-10-16T04:50:15;10.60;;;2.10;;
17965;SDS011;9108;53.204;10.424;2022-10-16T04:52:42;6.13;;;1.73;;
17965;SDS011;9108;53.204;10.424;2022-10-16T04:55:10;7.93;;;1.92;;
17965;SDS011;9108;53.204;10.424;2022-10-16T04:57:38;5.28;;;1.90;;
17965;SDS011;9108;53.204;10.424;2022-10-16T05:00:05;6.43;;;1.73;;
17965;SDS011;9108;53.204;10.424;2022-10-16T05:02:33;6.75;;;1.90;;
17965;SDS011;9108;53.204;10.424;2022-10-16T05:05:00;7.82;;;2.00;;
17965;SDS011;9108;53.204;10.424;2022-10-16T05:07:27;5.32;;;1.92;;
17965;SDS011;9108;53.204;10.424;2022-10-16T05:09:54;5.47;;;1.97;;
17965;SDS011;9108;53.204;10.424;2022-10-16T05:12:23;6.53;;;1.92;;
17965;SDS011;9108;53.204;10.424;2022-10-16T05:14:50;6.28;;;2.03;;
17965;SDS011;9108;53.204;10.424;2022-10-16T05:17:17;7.68;;;2.20;;
17965;SDS011;9108;53.204;10.424;2022-10-16T05:19:44;5.13;;;2.10;;
17965;SDS011;9108;53.204;10.424;2022-10-16T05:22:11;5.65;;;2.10;;
17965;SDS011;9108;53.204;10.424;2022-10-16T05:24:38;5.05;;;2.08;;
17965;SDS011;9108;53.204;10.424;2022-10-16T05:27:05;6.28;;;2.13;;
17965;SDS011;9108;53.204;10.424;2022-10-16T05:29:34;7.18;;;2.10;;
17965;SDS011;9108;53.204;10.424;2022-10-16T05:32:01;4.57;;;2.20;;
17965;SDS011;9108;53.204;10.424;2022-10-16T05:34:29;6.95;;;2.22;;
17965;SDS011;9108;53.204;10.424;2022-10-16T05:36:56;6.43;;;2.27;;
17965;SDS011;9108;53.204;10.424;2022-10-16T05:39:23;6.47;;;2.08;;
17965;SDS011;9108;53.204;10.424;2022-10-16T05:41:50;6.78;;;2.22;;
17965;SDS011;9108;53.204;10.424;2022-10-16T05:44:17;7.47;;;2.20;;
17965;SDS011;9108;53.204;10.424;2022-10-16T05:46:47;7.63;;;2.20;;
17965;SDS011;9108;53.204;10.424;2022-10-16T05:49:14;4.80;;;1.80;;
17965;SDS011;9108;53.204;10.424;2022-10-16T05:51:41;5.30;;;2.10;;
17965;SDS011;9108;53.204;10.424;2022-10-16T05:57:11;4.60;;;2.10;;
17965;SDS011;9108;53.204;10.424;2022-10-16T05:59:38;5.80;;;2.10;;
17965;SDS011;9108;53.204;10.424;2022-10-16T06:02:07;6.47;;;2.33;;
17965;SDS011;9108;53.204;10.424;2022-10-16T06:04:40;8.02;;;2.10;;
17965;SDS011;9108;53.204;10.424;2022-10-16T06:07:07;6.97;;;1.80;;
17965;SDS011;9108;53.204;10.424;2022-10-16T06:12:38;7.32;;;1.90;;
17965;SDS011;9108;53.204;10.424;2022-10-16T06:15:05;7.70;;;2.00;;
17965;SDS011;9108;53.204;10.424;2022-10-16T06:17:34;7.70;;;1.95;;
17965;SDS011;9108;53.204;10.424;2022-10-16T06:20:01;7.60;;;2.00;;
17965;SDS011;9108;53.204;10.424;2022-10-16T06:22:28;6.40;;;2.05;;
17965;SDS011;9108;53.204;10.424;2022-10-16T06:24:55;5.95;;;2.00;;
17965;SDS011;9108;53.204;10.424;2022-10-16T06:27:24;5.30;;;1.90;;
17965;SDS011;9108;53.204;10.424;2022-10-16T06:29:51;10.73;;;2.28;;
17965;SDS011;9108;53.204;10.424;2022-10-16T06:32:19;6.33;;;2.10;;
17965;SDS011;9108;53.204;10.424;2022-10-16T06:34:48;7.43;;;1.90;;
17965;SDS011;9108;53.204;10.424;2022-10-16T06:37:15;6.53;;;1.90;;
17965;SDS011;9108;53.204;10.424;2022-10-16T06:39:42;7.05;;;1.80;;
17965;SDS011;9108;53.204;10.424;2022-10-16T06:42:09;7.22;;;1.85;;
17965;SDS011;9108;53.204;10.424;2022-10-16T06:44:36;7.80;;;2.00;;
17965;SDS011;9108;53.204;10.424;2022-10-16T06:47:03;6.35;;;1.80;;
17965;SDS011;9108;53.204;10.424;2022-10-16T06:49:30;6.85;;;1.70;;
17965;SDS011;9108;53.204;10.424;2022-10-16T06:51:58;6.38;;;2.10;;
17965;SDS011;9108;53.204;10.424;2022-10-16T06:54:26;5.28;;;1.90;;
17965;SDS011;9108;53.204;10.424;2022-10-16T06:56:56;10.15;;;2.28;;
17965;SDS011;9108;53.204;10.424;2022-10-16T06:59:25;3.77;;;1.80;;
17965;SDS011;9108;53.204;10.424;2022-10-16T07:01:52;5.65;;;1.90;;
17965;SDS011;9108;53.204;10.424;2022-10-16T07:04:19;9.65;;;2.08;;
17965;SDS011;9108;53.204;10.424;2022-10-16T07:06:46;5.93;;;1.90;;
17965;SDS011;9108;53.204;10.424;2022-10-16T07:09:14;6.40;;;1.95;;
17965;SDS011;9108;53.204;10.424;2022-10-16T07:11:41;6.05;;;2.13;;
17965;SDS011;9108;53.204;10.424;2022-10-16T07:14:12;3.55;;;2.13;;
17965;SDS011;9108;53.204;10.424;2022-10-16T07:16:41;6.03;;;2.42;;
17965;SDS011;9108;53.204;10.424;2022-10-16T07:19:08;8.73;;;2.30;;
17965;SDS011;9108;53.204;10.424;2022-10-16T07:21:37;7.78;;;2.10;;
17965;SDS011;9108;53.204;10.424;2022-10-16T07:24:05;7.13;;;2.03;;
17965;SDS011;9108;53.204;10.424;2022-10-16T07:26:34;6.85;;;1.90;;
17965;SDS011;9108;53.204;10.424;2022-10-16T07:29:03;4.97;;;1.80;;
17965;SDS011;9108;53.204;10.424;2022-10-16T07:31:31;4.75;;;1.80;;
17965;SDS011;9108;53.204;10.424;2022-10-16T07:33:58;4.50;;;1.50;;
17965;SDS011;9108;53.204;10.424;2022-10-16T07:36:26;4.72;;;1.42;;
17965;SDS011;9108;53.204;10.424;2022-10-16T07:38:53;3.88;;;1.40;;
17965;SDS011;9108;53.204;10.424;2022-10-16T07:41:20;4.50;;;1.50;;
17965;SDS011;9108;53.204;10.424;2022-10-16T07:43:49;6.03;;;1.58;;
17965;SDS011;9108;53.204;10.424;2022-10-16T07:46:17;4.88;;;1.50;;
17965;SDS011;9108;53.204;10.424;2022-10-16T07:48:44;5.78;;;1.50;;
17965;SDS011;9108;53.204;10.424;2022-10-16T07:51:12;4.23;;;1.40;;
17965;SDS011;9108;53.204;10.424;2022-10-16T07:53:40;6.28;;;1.60;;
17965;SDS011;9108;53.204;10.424;2022-10-16T07:56:07;2.88;;;1.23;;
17965;SDS011;9108;53.204;10.424;2022-10-16T07:58:35;4.63;;;1.40;;
17965;SDS011;9108;53.204;10.424;2022-10-16T08:01:04;7.60;;;1.20;;
17965;SDS011;9108;53.204;10.424;2022-10-16T08:03:34;4.72;;;1.00;;
17965;SDS011;9108;53.204;10.424;2022-10-16T08:06:01;4.85;;;1.10;;
17965;SDS011;9108;53.204;10.424;2022-10-16T08:08:29;5.55;;;1.00;;
17965;SDS011;9108;53.204;10.424;2022-10-16T08:10:56;2.92;;;0.93;;
17965;SDS011;9108;53.204;10.424;2022-10-16T08:13:23;3.97;;;1.00;;
17965;SDS011;9108;53.204;10.424;2022-10-16T08:15:51;2.55;;;1.00;;
17965;SDS011;9108;53.204;10.424;2022-10-16T08:18:21;4.75;;;1.02;;
17965;SDS011;9108;53.204;10.424;2022-10-16T08:20:54;4.30;;;0.90;;
17965;SDS011;9108;53.204;10.424;2022-10-16T08:23:21;3.00;;;0.90;;
17965;SDS011;9108;53.204;10.424;2022-10-16T08:25:48;3.55;;;1.00;;
17965;SDS011;9108;53.204;10.424;2022-10-16T08:28:15;4.35;;;0.93;;
17965;SDS011;9108;53.204;10.424;2022-10-16T08:30:42;2.50;;;1.00;;
17965;SDS011;9108;53.204;10.424;2022-10-16T08:33:09;2.83;;;1.00;;
17965;SDS011;9108;53.204;10.424;2022-10-16T08:35:38;3.03;;;1.00;;
17965;SDS011;9108;53.204;10.424;2022-10-16T08:38:05;2.10;;;0.90;;
17965;SDS011;9108;53.204;10.424;2022-10-16T08:40:33;3.40;;;1.02;;
17965;SDS011;9108;53.204;10.424;2022-10-16T08:45:51;4.45;;;1.20;;
17965;SDS011;9108;53.204;10.424;2022-10-16T08:48:27;6.43;;;1.27;;
17965;SDS011;9108;53.204;10.424;2022-10-16T08:50:57;2.78;;;0.88;;
17965;SDS011;9108;53.204;10.424;2022-10-16T08:53:27;3.00;;;0.90;;
17965;SDS011;9108;53.204;10.424;2022-10-16T08:55:55;3.60;;;0.90;;
17965;SDS011;9108;53.204;10.424;2022-10-16T08:58:26;4.78;;;0.93;;
17965;SDS011;9108;53.204;10.424;2022-10-16T09:00:54;4.80;;;1.00;;
17965;SDS011;9108;53.204;10.424;2022-10-16T09:03:24;2.97;;;0.80;;
17965;SDS011;9108;53.204;10.424;2022-10-16T09:06:07;3.90;;;0.98;;
17965;SDS011;9108;53.204;10.424;2022-10-16T09:08:39;4.87;;;0.97;;
17965;SDS011;9108;53.204;10.424;2022-10-16T09:11:09;1.85;;;0.77;;
17965;SDS011;9108;53.204;10.424;2022-10-16T09:13:43;2.08;;;0.70;;
17965;SDS011;9108;53.204;10.424;2022-10-16T09:16:15;3.50;;;0.90;;
17965;SDS011;9108;53.204;10.424;2022-10-16T09:18:48;4.97;;;1.17;;
17965;SDS011;9108;53.204;10.424;2022-10-16T09:21:20;2.15;;;0.70;;
17965;SDS011;9108;53.204;10.424;2022-10-16T09:23:48;2.40;;;0.70;;
17965;SDS011;9108;53.204;10.424;2022-10-16T09:26:15;3.80;;;0.70;;
17965;SDS011;9108;53.204;10.424;2022-10-16T09:28:44;2.20;;;0.80;;
17965;SDS011;9108;53.204;10.424;2022-10-16T09:31:13;3.70;;;0.80;;
17965;SDS011;9108;53.204;10.424;2022-10-16T09:33:42;1.90;;;0.70;;
17965;SDS011;9108;53.204;10.424;2022-10-16T09:36:11;2.28;;;0.70;;
17965;SDS011;9108;53.204;10.424;2022-10-16T09:38:41;3.05;;;0.70;;
17965;SDS011;9108;53.204;10.424;2022-10-16T09:44:19;2.30;;;0.60;;
17965;SDS011;9108;53.204;10.424;2022-10-16T09:46:48;3.20;;;0.70;;
17965;SDS011;9108;53.204;10.424;2022-10-16T09:49:22;1.30;;;0.50;;
17965;SDS011;9108;53.204;10.424;2022-10-16T09:51:49;2.08;;;0.70;;
17965;SDS011;9108;53.204;10.424;2022-10-16T09:54:18;2.42;;;0.70;;
17965;SDS011;9108;53.204;10.424;2022-10-16T09:56:46;2.92;;;0.60;;
17965;SDS011;9108;53.204;10.424;2022-10-16T09:59:17;3.45;;;0.70;;
17965;SDS011;9108;53.204;10.424;2022-10-16T10:01:45;3.72;;;0.80;;
17965;SDS011;9108;53.204;10.424;2022-10-16T10:04:13;3.30;;;0.70;;
17965;SDS011;9108;53.204;10.424;2022-10-16T10:06:42;2.13;;;0.63;;
17965;SDS011;9108;53.204;10.424;2022-10-16T10:09:18;1.65;;;0.65;;
17965;SDS011;9108;53.204;10.424;2022-10-16T10:11:48;2.00;;;0.60;;
17965;SDS011;9108;53.204;10.424;2022-10-16T10:14:17;2.17;;;0.60;;
17965;SDS011;9108;53.204;10.424;2022-10-16T10:16:44;3.30;;;0.70;;
17965;SDS011;9108;53.204;10.424;2022-10-16T10:19:16;4.30;;;0.60;;
17965;SDS011;9108;53.204;10.424;2022-10-16T10:21:43;5.18;;;0.80;;
17965;SDS011;9108;53.204;10.424;2022-10-16T10:24:11;2.33;;;0.77;;
17965;SDS011;9108;53.204;10.424;2022-10-16T10:26:41;1.80;;;0.60;;
17965;SDS011;9108;53.204;10.424;2022-10-16T10:29:11;3.63;;;0.70;;
17965;SDS011;9108;53.204;10.424;2022-10-16T10:31:42;3.00;;;0.70;;
17965;SDS011;9108;53.204;10.424;2022-10-16T10:34:14;2.85;;;0.70;;
17965;SDS011;9108;53.204;10.424;2022-10-16T10:36:45;3.38;;;0.60;;
17965;SDS011;9108;53.204;10.424;2022-10-16T10:39:15;3.05;;;0.80;;
17965;SDS011;9108;53.204;10.424;2022-10-16T10:42:01;5.38;;;0.80;;
17965;SDS011;9108;53.204;10.424;2022-10-16T10:44:36;3.00;;;0.70;;
17965;SDS011;9108;53.204;10.424;2022-10-16T10:47:05;1.98;;;0.50;;
17965;SDS011;9108;53.204;10.424;2022-10-16T10:49:38;3.33;;;0.70;;
17965;SDS011;9108;53.204;10.424;2022-10-16T10:52:12;3.67;;;0.70;;
17965;SDS011;9108;53.204;10.424;2022-10-16T10:54:41;4.68;;;0.60;;
17965;SDS011;9108;53.204;10.424;2022-10-16T10:57:14;3.25;;;0.90;;
17965;SDS011;9108;53.204;10.424;2022-10-16T10:59:49;4.20;;;0.70;;
17965;SDS011;9108;53.204;10.424;2022-10-16T11:02:21;3.75;;;0.80;;
17965;SDS011;9108;53.204;10.424;2022-10-16T11:04:54;2.40;;;0.65;;
17965;SDS011;9108;53.204;10.424;2022-10-16T11:07:26;3.03;;;0.70;;
17965;SDS011;9108;53.204;10.424;2022-10-16T11:09:56;2.92;;;0.63;;
17965;SDS011;9108;53.204;10.424;2022-10-16T11:12:27;2.65;;;0.60;;
17965;SDS011;9108;53.204;10.424;2022-10-16T11:14:56;2.30;;;0.60;;
17965;SDS011;9108;53.204;10.424;2022-10-16T11:17:27;4.70;;;1.00;;
17965;SDS011;9108;53.204;10.424;2022-10-16T11:19:56;3.88;;;0.70;;
17965;SDS011;9108;53.204;10.424;2022-10-16T11:22:25;3.45;;;0.80;;
17965;SDS011;9108;53.204;10.424;2022-10-16T11:24:59;3.58;;;0.75;;
17965;SDS011;9108;53.204;10.424;2022-10-16T11:27:31;2.20;;;0.53;;
17965;SDS011;9108;53.204;10.424;2022-10-16T11:30:02;1.50;;;0.50;;
17965;SDS011;9108;53.204;10.424;2022-10-16T11:32:31;3.85;;;0.60;;
17965;SDS011;9108;53.204;10.424;2022-10-16T11:35:02;2.35;;;0.70;;
17965;SDS011;9108;53.204;10.424;2022-10-16T11:37:31;3.65;;;0.70;;
17965;SDS011;9108;53.204;10.424;2022-10-16T11:40:03;4.88;;;0.65;;
17965;SDS011;9108;53.204;10.424;2022-10-16T11:42:34;3.42;;;0.70;;
17965;SDS011;9108;53.204;10.424;2022-10-16T11:45:07;3.03;;;0.77;;
17965;SDS011;9108;53.204;10.424;2022-10-16T11:47:37;3.38;;;0.80;;
17965;SDS011;9108;53.204;10.424;2022-10-16T11:50:10;5.30;;;0.70;;
17965;SDS011;9108;53.204;10.424;2022-10-16T11:52:41;2.97;;;0.60;;
17965;SDS011;9108;53.204;10.424;2022-10-16T11:55:13;4.43;;;0.73;;
17965;SDS011;9108;53.204;10.424;2022-10-16T11:57:43;2.97;;;0.70;;
17965;SDS011;9108;53.204;10.424;2022-10-16T12:00:15;3.93;;;0.70;;
17965;SDS011;9108;53.204;10.424;2022-10-16T12:02:48;3.60;;;0.70;;
17965;SDS011;9108;53.204;10.424;2022-10-16T12:05:19;3.38;;;0.65;;
17965;SDS011;9108;53.204;10.424;2022-10-16T12:07:50;2.58;;;0.50;;
17965;SDS011;9108;53.204;10.424;2022-10-16T12:10:19;3.78;;;0.60;;
17965;SDS011;9108;53.204;10.424;2022-10-16T12:12:51;4.20;;;0.60;;
17965;SDS011;9108;53.204;10.424;2022-10-16T12:15:20;3.07;;;0.73;;
17965;SDS011;9108;53.204;10.424;2022-10-16T12:17:47;2.28;;;0.60;;
17965;SDS011;9108;53.204;10.424;2022-10-16T12:23:02;3.27;;;0.80;;
17965;SDS011;9108;53.204;10.424;2022-10-16T12:25:31;3.83;;;0.80;;
17965;SDS011;9108;53.204;10.424;2022-10-16T12:28:03;5.05;;;0.75;;
17965;SDS011;9108;53.204;10.424;2022-10-16T12:30:31;3.72;;;0.73;;
17965;SDS011;9108;53.204;10.424;2022-10-16T12:33:00;2.90;;;0.60;;
17965;SDS011;9108;53.204;10.424;2022-10-16T12:35:32;2.20;;;0.50;;
17965;SDS011;9108;53.204;10.424;2022-10-16T12:38:14;3.20;;;0.60;;
17965;SDS011;9108;53.204;10.424;2022-10-16T12:40:43;5.35;;;0.75;;
17965;SDS011;9108;53.204;10.424;2022-10-16T12:43:12;2.73;;;0.60;;
17965;SDS011;9108;53.204;10.424;2022-10-16T12:45:39;2.23;;;0.60;;
17965;SDS011;9108;53.204;10.424;2022-10-16T12:48:18;3.78;;;0.68;;
17965;SDS011;9108;53.204;10.424;2022-10-16T12:50:46;3.35;;;0.70;;
17965;SDS011;9108;53.204;10.424;2022-10-16T12:53:19;3.03;;;0.88;;
17965;SDS011;9108;53.204;10.424;2022-10-16T12:55:50;4.05;;;0.70;;
17965;SDS011;9108;53.204;10.424;2022-10-16T12:58:24;3.25;;;0.68;;
17965;SDS011;9108;53.204;10.424;2022-10-16T13:00:54;3.42;;;0.60;;
17965;SDS011;9108;53.204;10.424;2022-10-16T13:03:43;3.65;;;0.68;;
17965;SDS011;9108;53.204;10.424;2022-10-16T13:06:17;3.22;;;0.80;;
17965;SDS011;9108;53.204;10.424;2022-10-16T13:08:54;4.00;;;0.80;;
17965;SDS011;9108;53.204;10.424;2022-10-16T13:11:25;3.33;;;0.68;;
17965;SDS011;9108;53.204;10.424;2022-10-16T13:14:00;4.63;;;0.73;;
17965;SDS011;9108;53.204;10.424;2022-10-16T13:16:34;3.40;;;0.70;;
17965;SDS011;9108;53.204;10.424;2022-10-16T13:19:08;4.53;;;0.70;;
17965;SDS011;9108;53.204;10.424;2022-10-16T13:21:42;2.25;;;0.70;;
17965;SDS011;9108;53.204;10.424;2022-10-16T13:24:15;4.83;;;0.80;;
17965;SDS011;9108;53.204;10.424;2022-10-16T13:26:46;3.97;;;0.70;;
17965;SDS011;9108;53.204;10.424;2022-10-16T13:29:17;5.75;;;0.82;;
17965;SDS011;9108;53.204;10.424;2022-10-16T13:31:45;3.08;;;0.70;;
17965;SDS011;9108;53.204;10.424;2022-10-16T13:34:12;2.78;;;0.80;;
17965;SDS011;9108;53.204;10.424;2022-10-16T13:36:45;2.45;;;0.60;;
17965;SDS011;9108;53.204;10.424;2022-10-16T13:39:13;4.15;;;0.63;;
17965;SDS011;9108;53.204;10.424;2022-10-16T13:41:42;3.90;;;0.73;;
17965;SDS011;9108;53.204;10.424;2022-10-16T13:44:12;5.45;;;0.82;;
17965;SDS011;9108;53.204;10.424;2022-10-16T13:46:42;3.28;;;0.60;;
17965;SDS011;9108;53.204;10.424;2022-10-16T13:49:13;4.45;;;0.70;;
17965;SDS011;9108;53.204;10.424;2022-10-16T13:51:40;3.05;;;0.68;;
17965;SDS011;9108;53.204;10.424;2022-10-16T13:54:09;4.33;;;1.00;;
17965;SDS011;9108;53.204;10.424;2022-10-16T13:56:38;4.40;;;0.70;;
17965;SDS011;9108;53.204;10.424;2022-10-16T13:59:06;4.10;;;0.80;;
17965;SDS011;9108;53.204;10.424;2022-10-16T14:01:33;4.82;;;0.60;;
17965;SDS011;9108;53.204;10.424;2022-10-16T14:04:04;3.80;;;0.70;;
17965;SDS011;9108;53.204;10.424;2022-10-16T14:06:31;4.47;;;0.70;;
17965;SDS011;9108;53.204;10.424;2022-10-16T14:08:59;2.03;;;0.63;;
17965;SDS011;9108;53.204;10.424;2022-10-16T14:11:28;2.63;;;0.60;;
17965;SDS011;9108;53.204;10.424;2022-10-16T14:13:55;3.45;;;0.70;;
17965;SDS011;9108;53.204;10.424;2022-10-16T14:16:23;3.13;;;0.75;;
17965;SDS011;9108;53.204;10.424;2022-10-16T14:18:55;4.15;;;0.70;;
17965;SDS011;9108;53.204;10.424;2022-10-16T14:21:24;4.00;;;0.98;;
17965;SDS011;9108;53.204;10.424;2022-10-16T14:23:51;5.83;;;0.90;;
17965;SDS011;9108;53.204;10.424;2022-10-16T14:26:19;4.00;;;1.00;;
17965;SDS011;9108;53.204;10.424;2022-10-16T14:28:47;3.78;;;0.73;;
17965;SDS011;9108;53.204;10.424;2022-10-16T14:31:25;3.03;;;0.60;;
17965;SDS011;9108;53.204;10.424;2022-10-16T14:33:52;5.25;;;0.90;;
17965;SDS011;9108;53.204;10.424;2022-10-16T14:36:20;4.13;;;0.70;;
17965;SDS011;9108;53.204;10.424;2022-10-16T14:38:50;4.13;;;0.70;;
17965;SDS011;9108;53.204;10.424;2022-10-16T14:41:20;4.32;;;0.75;;
17965;SDS011;9108;53.204;10.424;2022-10-16T14:43:49;3.70;;;0.70;;
17965;SDS011;9108;53.204;10.424;2022-10-16T14:46:17;3.35;;;0.68;;
17965;SDS011;9108;53.204;10.424;2022-10-16T14:48:45;2.88;;;0.63;;
17965;SDS011;9108;53.204;10.424;2022-10-16T14:51:13;3.92;;;0.68;;
17965;SDS011;9108;53.204;10.424;2022-10-16T14:53:40;5.77;;;0.90;;
17965;SDS011;9108;53.204;10.424;2022-10-16T14:56:12;3.72;;;0.50;;
17965;SDS011;9108;53.204;10.424;2022-10-16T14:58:44;4.70;;;0.77;;
17965;SDS011;9108;53.204;10.424;2022-10-16T15:01:11;5.32;;;0.80;;
17965;SDS011;9108;53.204;10.424;2022-10-16T15:03:38;4.57;;;0.87;;
17965;SDS011;9108;53.204;10.424;2022-10-16T15:06:08;5.47;;;0.88;;
17965;SDS011;9108;53.204;10.424;2022-10-16T15:08:36;4.45;;;0.90;;
17965;SDS011;9108;53.204;10.424;2022-10-16T15:11:05;4.75;;;0.82;;
17965;SDS011;9108;53.204;10.424;2022-10-16T15:13:37;7.75;;;0.95;;